sensor_id;sensor_type;location;lat;lon;timestamp;temperature;humidity
2973;DHT22;1496;51.404;7.232;2023-06-22T00:01:21;21.80;99.90
2973;DHT22;1496;51.404;7.232;2023-06-22T00:03:51;21.70;99.90
2973;DHT22;1496;51.404;7.232;2023-06-22T00:06:18;21.70;99.90
2973;DHT22;1496;51.404;7.232;2023-06-22T00:08:44;21.60;99.90
2973;DHT22;1496;51.404;7.232;2023-06-22T00:11:10;21.70;99.90
2973;DHT22;1496;51.404;7.232;2023-06-22T00:13:38;21.70;99.90
2973;DHT22;1496;51.404;7.232;2023-06-22T00:16:05;21.70;99.90
2973;DHT22;1496;51.404;7.232;2023-06-22T00:18:32;21.70;99.90
2973;DHT22;1496;51.404;7.232;2023-06-22T00:21:00;21.70;99.90
2973;DHT22;1496;51.404;7.232;2023-06-22T00:23:26;21.60;99.90
2973;DHT22;1496;51.404;7.232;2023-06-22T00:25:52;21.60;99.90
2973;DHT22;1496;51.404;7.232;2023-06-22T00:28:20;21.60;99.90
2973;DHT22;1496;51.404;7.232;2023-06-22T00:30:48;21.60;99.90
2973;DHT22;1496;51.404;7.232;2023-06-22T00:33:16;21.50;99.90
2973;DHT22;1496;51.404;7.232;2023-06-22T00:35:44;21.60;99.90
2973;DHT22;1496;51.404;7.232;2023-06-22T00:38:11;21.50;99.90
2973;DHT22;1496;51.404;7.232;2023-06-22T00:40:38;21.50;99.90
2973;DHT22;1496;51.404;7.232;2023-06-22T00:43:06;21.50;99.90
2973;DHT22;1496;51.404;7.232;2023-06-22T00:45:34;21.30;99.90
2973;DHT22;1496;51.404;7.232;2023-06-22T00:48:01;21.10;99.90
2973;DHT22;1496;51.404;7.232;2023-06-22T00:50:30;21.10;99.90
2973;DHT22;1496;51.404;7.232;2023-06-22T00:53:05;21.30;99.90
2973;DHT22;1496;51.404;7.232;2023-06-22T00:55:40;21.30;99.90
2973;DHT22;1496;51.404;7.232;2023-06-22T00:58:10;21.10;99.90
2973;DHT22;1496;51.404;7.232;2023-06-22T01:00:38;21.10;99.90
2973;DHT22;1496;51.404;7.232;2023-06-22T01:03:06;21.20;99.90
2973;DHT22;1496;51.404;7.232;2023-06-22T01:05:37;21.30;99.90
2973;DHT22;1496;51.404;7.232;2023-06-22T01:16:34;21.30;99.90
2973;DHT22;1496;51.404;7.232;2023-06-22T01:22:08;21.30;99.90
2973;DHT22;1496;51.404;7.232;2023-06-22T01:25:12;21.30;99.90
2973;DHT22;1496;51.404;7.232;2023-06-22T01:30:28;21.10;99.90
2973;DHT22;1496;51.404;7.232;2023-06-22T01:32:57;21.10;99.90
2973;DHT22;1496;51.404;7.232;2023-06-22T01:35:26;21.10;99.90
2973;DHT22;1496;51.404;7.232;2023-06-22T01:37:55;21.20;99.90
2973;DHT22;1496;51.404;7.232;2023-06-22T01:40:23;21.20;99.90
2973;DHT22;1496;51.404;7.232;2023-06-22T01:42:51;21.20;99.90
2973;DHT22;1496;51.404;7.232;2023-06-22T01:45:18;21.20;99.90
2973;DHT22;1496;51.404;7.232;2023-06-22T01:47:45;21.20;99.90
2973;DHT22;1496;51.404;7.232;2023-06-22T01:50:12;21.20;99.90
2973;DHT22;1496;51.404;7.232;2023-06-22T01:52:39;21.20;99.90
2973;DHT22;1496;51.404;7.232;2023-06-22T01:55:06;21.20;99.90
2973;DHT22;1496;51.404;7.232;2023-06-22T01:57:33;21.20;99.90
2973;DHT22;1496;51.404;7.232;2023-06-22T02:00:07;21.10;99.90
2973;DHT22;1496;51.404;7.232;2023-06-22T02:05:17;21.00;99.90
2973;DHT22;1496;51.404;7.232;2023-06-22T02:08:05;21.00;99.90
2973;DHT22;1496;51.404;7.232;2023-06-22T02:10:34;21.00;99.90
2973;DHT22;1496;51.404;7.232;2023-06-22T02:13:03;21.00;99.90
2973;DHT22;1496;51.404;7.232;2023-06-22T02:15:30;21.00;99.90
2973;DHT22;1496;51.404;7.232;2023-06-22T02:17:57;20.90;99.90
2973;DHT22;1496;51.404;7.232;2023-06-22T02:20:24;20.90;99.90
2973;DHT22;1496;51.404;7.232;2023-06-22T02:22:51;20.90;99.90
2973;DHT22;1496;51.404;7.232;2023-06-22T02:25:17;20.90;99.90
2973;DHT22;1496;51.404;7.232;2023-06-22T02:27:46;20.90;99.90
2973;DHT22;1496;51.404;7.232;2023-06-22T02:30:12;20.80;99.90
2973;DHT22;1496;51.404;7.232;2023-06-22T02:32:40;20.60;99.90
2973;DHT22;1496;51.404;7.232;2023-06-22T02:35:11;20.50;99.90
2973;DHT22;1496;51.404;7.232;2023-06-22T02:37:38;20.50;99.90
2973;DHT22;1496;51.404;7.232;2023-06-22T02:40:08;20.50;99.90
2973;DHT22;1496;51.404;7.232;2023-06-22T02:42:39;20.40;99.90
2973;DHT22;1496;51.404;7.232;2023-06-22T02:45:06;20.40;99.90
2973;DHT22;1496;51.404;7.232;2023-06-22T02:47:33;20.30;99.90
2973;DHT22;1496;51.404;7.232;2023-06-22T02:50:00;20.30;99.90
2973;DHT22;1496;51.404;7.232;2023-06-22T02:52:28;20.40;99.90
2973;DHT22;1496;51.404;7.232;2023-06-22T02:54:56;20.50;99.90
2973;DHT22;1496;51.404;7.232;2023-06-22T02:57:23;20.50;99.90
2973;DHT22;1496;51.404;7.232;2023-06-22T02:59:50;20.60;99.90
2973;DHT22;1496;51.404;7.232;2023-06-22T03:02:17;20.60;99.90
2973;DHT22;1496;51.404;7.232;2023-06-22T03:04:47;20.60;99.90
2973;DHT22;1496;51.404;7.232;2023-06-22T03:07:17;20.60;99.90
2973;DHT22;1496;51.404;7.232;2023-06-22T03:09:46;20.60;99.90
2973;DHT22;1496;51.404;7.232;2023-06-22T03:12:12;20.60;99.90
2973;DHT22;1496;51.404;7.232;2023-06-22T03:14:52;20.60;99.90
2973;DHT22;1496;51.404;7.232;2023-06-22T03:17:18;20.50;99.90
2973;DHT22;1496;51.404;7.232;2023-06-22T03:19:45;20.50;99.90
2973;DHT22;1496;51.404;7.232;2023-06-22T03:22:14;20.50;99.90
2973;DHT22;1496;51.404;7.232;2023-06-22T03:24:40;20.40;99.90
2973;DHT22;1496;51.404;7.232;2023-06-22T03:27:08;20.40;99.90
2973;DHT22;1496;51.404;7.232;2023-06-22T03:29:34;20.40;99.90
2973;DHT22;1496;51.404;7.232;2023-06-22T03:32:02;20.40;99.90
2973;DHT22;1496;51.404;7.232;2023-06-22T03:34:31;20.40;99.90
2973;DHT22;1496;51.404;7.232;2023-06-22T03:37:05;20.40;99.90
2973;DHT22;1496;51.404;7.232;2023-06-22T03:39:32;20.50;99.90
2973;DHT22;1496;51.404;7.232;2023-06-22T03:42:00;20.50;99.90
2973;DHT22;1496;51.404;7.232;2023-06-22T03:44:26;20.50;99.90
2973;DHT22;1496;51.404;7.232;2023-06-22T03:46:53;20.40;99.90
2973;DHT22;1496;51.404;7.232;2023-06-22T03:49:20;20.40;99.90
2973;DHT22;1496;51.404;7.232;2023-06-22T03:51:46;20.40;99.90
2973;DHT22;1496;51.404;7.232;2023-06-22T03:54:14;20.30;99.90
2973;DHT22;1496;51.404;7.232;2023-06-22T03:56:39;20.20;99.90
2973;DHT22;1496;51.404;7.232;2023-06-22T03:59:06;20.10;99.90
2973;DHT22;1496;51.404;7.232;2023-06-22T04:01:33;20.10;99.90
2973;DHT22;1496;51.404;7.232;2023-06-22T04:04:00;20.00;99.90
2973;DHT22;1496;51.404;7.232;2023-06-22T04:06:27;20.00;99.90
2973;DHT22;1496;51.404;7.232;2023-06-22T04:08:54;20.00;99.90
2973;DHT22;1496;51.404;7.232;2023-06-22T04:11:21;20.00;99.90
2973;DHT22;1496;51.404;7.232;2023-06-22T04:13:47;20.10;99.90
2973;DHT22;1496;51.404;7.232;2023-06-22T04:16:15;20.10;99.90
2973;DHT22;1496;51.404;7.232;2023-06-22T04:18:41;20.00;99.90
2973;DHT22;1496;51.404;7.232;2023-06-22T04:21:08;20.00;99.90
2973;DHT22;1496;51.404;7.232;2023-06-22T04:23:36;20.00;99.90
2973;DHT22;1496;51.404;7.232;2023-06-22T04:26:02;20.00;99.90
2973;DHT22;1496;51.404;7.232;2023-06-22T04:28:29;20.10;99.90
2973;DHT22;1496;51.404;7.232;2023-06-22T04:31:04;20.10;99.90
2973;DHT22;1496;51.404;7.232;2023-06-22T04:33:33;20.20;99.90
2973;DHT22;1496;51.404;7.232;2023-06-22T04:35:59;20.20;99.90
2973;DHT22;1496;51.404;7.232;2023-06-22T04:38:30;20.30;99.90
2973;DHT22;1496;51.404;7.232;2023-06-22T04:40:59;20.30;99.90
2973;DHT22;1496;51.404;7.232;2023-06-22T04:43:28;20.30;99.90
2973;DHT22;1496;51.404;7.232;2023-06-22T04:46:01;20.40;99.90
2973;DHT22;1496;51.404;7.232;2023-06-22T04:48:30;20.40;99.90
2973;DHT22;1496;51.404;7.232;2023-06-22T04:51:01;20.40;99.90
2973;DHT22;1496;51.404;7.232;2023-06-22T04:53:31;20.50;99.90
2973;DHT22;1496;51.404;7.232;2023-06-22T04:55:58;20.40;99.90
2973;DHT22;1496;51.404;7.232;2023-06-22T04:58:24;20.40;99.90
2973;DHT22;1496;51.404;7.232;2023-06-22T05:00:55;20.50;99.90
2973;DHT22;1496;51.404;7.232;2023-06-22T05:03:25;20.30;99.90
2973;DHT22;1496;51.404;7.232;2023-06-22T05:05:53;20.40;99.90
2973;DHT22;1496;51.404;7.232;2023-06-22T05:08:21;20.50;99.90
2973;DHT22;1496;51.404;7.232;2023-06-22T05:10:52;20.40;99.90
2973;DHT22;1496;51.404;7.232;2023-06-22T05:13:20;20.30;99.90
2973;DHT22;1496;51.404;7.232;2023-06-22T05:15:48;20.30;99.90
2973;DHT22;1496;51.404;7.232;2023-06-22T05:18:15;20.40;99.90
2973;DHT22;1496;51.404;7.232;2023-06-22T05:20:42;20.30;99.90
2973;DHT22;1496;51.404;7.232;2023-06-22T05:23:09;20.30;99.90
2973;DHT22;1496;51.404;7.232;2023-06-22T05:25:36;20.30;99.90
2973;DHT22;1496;51.404;7.232;2023-06-22T05:28:03;20.30;99.90
2973;DHT22;1496;51.404;7.232;2023-06-22T05:30:37;20.40;99.90
2973;DHT22;1496;51.404;7.232;2023-06-22T05:33:02;20.30;99.90
2973;DHT22;1496;51.404;7.232;2023-06-22T05:35:30;20.30;99.90
2973;DHT22;1496;51.404;7.232;2023-06-22T05:37:57;20.40;99.90
2973;DHT22;1496;51.404;7.232;2023-06-22T05:40:24;20.40;99.90
2973;DHT22;1496;51.404;7.232;2023-06-22T05:42:52;20.50;99.90
2973;DHT22;1496;51.404;7.232;2023-06-22T05:45:19;20.50;99.90
2973;DHT22;1496;51.404;7.232;2023-06-22T05:47:46;20.50;99.90
2973;DHT22;1496;51.404;7.232;2023-06-22T05:50:12;20.50;99.90
2973;DHT22;1496;51.404;7.232;2023-06-22T05:52:38;20.50;99.90
2973;DHT22;1496;51.404;7.232;2023-06-22T05:55:08;20.60;99.90
2973;DHT22;1496;51.404;7.232;2023-06-22T05:57:37;20.60;99.90
2973;DHT22;1496;51.404;7.232;2023-06-22T06:00:05;20.60;99.90
2973;DHT22;1496;51.404;7.232;2023-06-22T06:02:42;20.70;99.90
2973;DHT22;1496;51.404;7.232;2023-06-22T06:05:15;20.70;99.90
2973;DHT22;1496;51.404;7.232;2023-06-22T06:07:45;20.70;99.90
2973;DHT22;1496;51.404;7.232;2023-06-22T06:10:12;20.80;99.90
2973;DHT22;1496;51.404;7.232;2023-06-22T06:12:38;20.80;99.90
2973;DHT22;1496;51.404;7.232;2023-06-22T06:15:07;20.80;99.90
2973;DHT22;1496;51.404;7.232;2023-06-22T06:17:33;20.80;99.90
2973;DHT22;1496;51.404;7.232;2023-06-22T06:20:01;20.80;99.90
2973;DHT22;1496;51.404;7.232;2023-06-22T06:22:27;20.80;99.90
2973;DHT22;1496;51.404;7.232;2023-06-22T06:24:53;20.80;99.90
2973;DHT22;1496;51.404;7.232;2023-06-22T06:27:20;20.80;99.90
2973;DHT22;1496;51.404;7.232;2023-06-22T06:29:47;20.80;99.90
2973;DHT22;1496;51.404;7.232;2023-06-22T06:32:15;20.90;99.90
2973;DHT22;1496;51.404;7.232;2023-06-22T06:34:41;20.90;99.90
2973;DHT22;1496;51.404;7.232;2023-06-22T06:37:09;21.00;99.90
2973;DHT22;1496;51.404;7.232;2023-06-22T06:39:35;21.00;99.90
2973;DHT22;1496;51.404;7.232;2023-06-22T06:42:04;21.10;99.90
2973;DHT22;1496;51.404;7.232;2023-06-22T06:44:31;21.20;99.90
2973;DHT22;1496;51.404;7.232;2023-06-22T06:46:58;21.30;99.90
2973;DHT22;1496;51.404;7.232;2023-06-22T06:49:24;21.30;99.90
2973;DHT22;1496;51.404;7.232;2023-06-22T06:51:52;21.40;99.90
2973;DHT22;1496;51.404;7.232;2023-06-22T06:54:18;21.40;99.90
2973;DHT22;1496;51.404;7.232;2023-06-22T06:56:47;21.40;99.90
2973;DHT22;1496;51.404;7.232;2023-06-22T06:59:15;21.40;99.90
2973;DHT22;1496;51.404;7.232;2023-06-22T07:01:42;21.40;99.90
2973;DHT22;1496;51.404;7.232;2023-06-22T07:04:10;21.40;99.90
2973;DHT22;1496;51.404;7.232;2023-06-22T07:06:37;21.40;99.90
2973;DHT22;1496;51.404;7.232;2023-06-22T07:09:05;21.40;99.90
2973;DHT22;1496;51.404;7.232;2023-06-22T07:11:33;21.40;99.90
2973;DHT22;1496;51.404;7.232;2023-06-22T07:14:01;21.40;99.90
2973;DHT22;1496;51.404;7.232;2023-06-22T07:16:29;21.30;99.90
2973;DHT22;1496;51.404;7.232;2023-06-22T07:18:57;21.30;99.90
2973;DHT22;1496;51.404;7.232;2023-06-22T07:21:24;21.30;99.90
2973;DHT22;1496;51.404;7.232;2023-06-22T07:23:50;21.20;99.90
2973;DHT22;1496;51.404;7.232;2023-06-22T07:26:17;21.30;99.90
2973;DHT22;1496;51.404;7.232;2023-06-22T07:28:43;21.20;99.90
2973;DHT22;1496;51.404;7.232;2023-06-22T07:31:11;21.20;99.90
2973;DHT22;1496;51.404;7.232;2023-06-22T07:33:38;21.10;99.90
2973;DHT22;1496;51.404;7.232;2023-06-22T07:36:05;21.00;1.00
2973;DHT22;1496;51.404;7.232;2023-06-22T07:38:34;20.90;1.00
2973;DHT22;1496;51.404;7.232;2023-06-22T07:41:02;20.80;1.00
2973;DHT22;1496;51.404;7.232;2023-06-22T07:43:32;20.80;1.00
2973;DHT22;1496;51.404;7.232;2023-06-22T07:46:00;20.70;1.00
2973;DHT22;1496;51.404;7.232;2023-06-22T07:48:26;20.80;1.00
2973;DHT22;1496;51.404;7.232;2023-06-22T07:50:54;20.80;1.00
2973;DHT22;1496;51.404;7.232;2023-06-22T07:53:22;20.80;1.00
2973;DHT22;1496;51.404;7.232;2023-06-22T07:55:50;20.90;1.00
2973;DHT22;1496;51.404;7.232;2023-06-22T07:58:17;20.90;1.00
2973;DHT22;1496;51.404;7.232;2023-06-22T08:00:45;20.90;1.00
2973;DHT22;1496;51.404;7.232;2023-06-22T08:03:11;20.90;1.00
2973;DHT22;1496;51.404;7.232;2023-06-22T08:05:38;20.80;1.00
2973;DHT22;1496;51.404;7.232;2023-06-22T08:08:05;20.80;1.00
2973;DHT22;1496;51.404;7.232;2023-06-22T08:10:33;20.90;1.00
2973;DHT22;1496;51.404;7.232;2023-06-22T08:13:01;20.90;1.00
2973;DHT22;1496;51.404;7.232;2023-06-22T08:15:28;20.80;1.00
2973;DHT22;1496;51.404;7.232;2023-06-22T08:17:56;20.80;1.00
2973;DHT22;1496;51.404;7.232;2023-06-22T08:20:24;20.80;1.00
2973;DHT22;1496;51.404;7.232;2023-06-22T08:22:50;20.80;1.00
2973;DHT22;1496;51.404;7.232;2023-06-22T08:25:16;20.70;1.00
2973;DHT22;1496;51.404;7.232;2023-06-22T08:27:47;20.80;1.00
2973;DHT22;1496;51.404;7.232;2023-06-22T08:30:14;20.90;1.00
2973;DHT22;1496;51.404;7.232;2023-06-22T08:32:44;21.00;1.00
2973;DHT22;1496;51.404;7.232;2023-06-22T08:35:11;21.00;1.00
2973;DHT22;1496;51.404;7.232;2023-06-22T08:37:37;21.10;1.00
2973;DHT22;1496;51.404;7.232;2023-06-22T08:40:09;21.20;1.00
2973;DHT22;1496;51.404;7.232;2023-06-22T08:42:36;21.30;1.00
2973;DHT22;1496;51.404;7.232;2023-06-22T08:45:04;21.30;1.00
2973;DHT22;1496;51.404;7.232;2023-06-22T08:47:31;21.30;1.00
2973;DHT22;1496;51.404;7.232;2023-06-22T08:49:58;21.30;1.00
2973;DHT22;1496;51.404;7.232;2023-06-22T08:52:25;21.30;1.00
2973;DHT22;1496;51.404;7.232;2023-06-22T08:54:52;21.40;1.00
2973;DHT22;1496;51.404;7.232;2023-06-22T08:57:19;21.60;1.00
2973;DHT22;1496;51.404;7.232;2023-06-22T08:59:46;21.90;1.00
2973;DHT22;1496;51.404;7.232;2023-06-22T09:02:13;22.20;1.00
2973;DHT22;1496;51.404;7.232;2023-06-22T09:04:39;22.40;1.00
2973;DHT22;1496;51.404;7.232;2023-06-22T09:07:07;22.50;1.00
2973;DHT22;1496;51.404;7.232;2023-06-22T09:09:33;22.60;1.00
2973;DHT22;1496;51.404;7.232;2023-06-22T09:12:00;22.60;1.00
2973;DHT22;1496;51.404;7.232;2023-06-22T09:14:27;22.70;1.00
2973;DHT22;1496;51.404;7.232;2023-06-22T09:16:55;23.00;1.00
2973;DHT22;1496;51.404;7.232;2023-06-22T09:19:22;23.20;1.00
2973;DHT22;1496;51.404;7.232;2023-06-22T09:21:48;23.50;1.00
2973;DHT22;1496;51.404;7.232;2023-06-22T09:24:14;23.60;1.00
2973;DHT22;1496;51.404;7.232;2023-06-22T09:26:41;23.60;1.00
2973;DHT22;1496;51.404;7.232;2023-06-22T09:29:07;23.70;1.00
2973;DHT22;1496;51.404;7.232;2023-06-22T09:31:35;24.00;1.00
2973;DHT22;1496;51.404;7.232;2023-06-22T09:34:02;24.30;1.00
2973;DHT22;1496;51.404;7.232;2023-06-22T09:36:28;24.40;1.00
2973;DHT22;1496;51.404;7.232;2023-06-22T09:38:57;24.50;1.00
2973;DHT22;1496;51.404;7.232;2023-06-22T09:41:26;24.50;1.00
2973;DHT22;1496;51.404;7.232;2023-06-22T09:43:53;24.60;1.00
2973;DHT22;1496;51.404;7.232;2023-06-22T09:46:22;24.60;1.00
2973;DHT22;1496;51.404;7.232;2023-06-22T09:48:51;24.70;1.00
2973;DHT22;1496;51.404;7.232;2023-06-22T09:51:19;24.80;1.00
2973;DHT22;1496;51.404;7.232;2023-06-22T09:53:49;25.10;1.00
2973;DHT22;1496;51.404;7.232;2023-06-22T09:56:16;25.00;1.00
2973;DHT22;1496;51.404;7.232;2023-06-22T09:58:44;24.90;1.00
2973;DHT22;1496;51.404;7.232;2023-06-22T10:01:13;24.90;1.00
2973;DHT22;1496;51.404;7.232;2023-06-22T10:03:43;24.80;1.00
2973;DHT22;1496;51.404;7.232;2023-06-22T10:06:09;24.70;1.00
2973;DHT22;1496;51.404;7.232;2023-06-22T10:08:36;24.70;1.00
2973;DHT22;1496;51.404;7.232;2023-06-22T10:11:04;24.70;1.00
2973;DHT22;1496;51.404;7.232;2023-06-22T10:13:32;24.70;1.00
2973;DHT22;1496;51.404;7.232;2023-06-22T10:15:59;24.90;1.00
2973;DHT22;1496;51.404;7.232;2023-06-22T10:18:25;25.00;1.00
2973;DHT22;1496;51.404;7.232;2023-06-22T10:20:52;25.10;1.00
2973;DHT22;1496;51.404;7.232;2023-06-22T10:23:19;25.10;1.00
2973;DHT22;1496;51.404;7.232;2023-06-22T10:25:46;25.20;1.00
2973;DHT22;1496;51.404;7.232;2023-06-22T10:28:13;25.20;1.00
2973;DHT22;1496;51.404;7.232;2023-06-22T10:30:40;25.20;1.00
2973;DHT22;1496;51.404;7.232;2023-06-22T10:33:12;25.30;1.00
2973;DHT22;1496;51.404;7.232;2023-06-22T10:35:39;25.30;1.00
2973;DHT22;1496;51.404;7.232;2023-06-22T10:38:05;25.30;1.00
2973;DHT22;1496;51.404;7.232;2023-06-22T10:40:32;25.30;1.00
2973;DHT22;1496;51.404;7.232;2023-06-22T10:43:01;25.40;1.00
2973;DHT22;1496;51.404;7.232;2023-06-22T10:45:28;25.40;1.00
2973;DHT22;1496;51.404;7.232;2023-06-22T10:47:55;25.40;1.00
2973;DHT22;1496;51.404;7.232;2023-06-22T10:50:21;25.30;1.00
2973;DHT22;1496;51.404;7.232;2023-06-22T10:52:51;25.30;1.00
2973;DHT22;1496;51.404;7.232;2023-06-22T10:55:18;25.20;1.00
2973;DHT22;1496;51.404;7.232;2023-06-22T10:57:46;25.10;1.00
2973;DHT22;1496;51.404;7.232;2023-06-22T11:00:14;25.10;1.00
2973;DHT22;1496;51.404;7.232;2023-06-22T11:02:42;24.90;1.00
2973;DHT22;1496;51.404;7.232;2023-06-22T11:05:08;24.80;1.00
2973;DHT22;1496;51.404;7.232;2023-06-22T11:07:37;24.70;1.00
2973;DHT22;1496;51.404;7.232;2023-06-22T11:10:05;24.70;1.00
2973;DHT22;1496;51.404;7.232;2023-06-22T11:12:32;24.60;1.00
2973;DHT22;1496;51.404;7.232;2023-06-22T11:14:59;24.50;1.00
2973;DHT22;1496;51.404;7.232;2023-06-22T11:17:27;24.50;1.00
2973;DHT22;1496;51.404;7.232;2023-06-22T11:19:53;24.40;1.00
2973;DHT22;1496;51.404;7.232;2023-06-22T11:22:22;24.30;1.00
2973;DHT22;1496;51.404;7.232;2023-06-22T11:24:50;24.20;1.00
2973;DHT22;1496;51.404;7.232;2023-06-22T11:27:16;24.00;1.00
2973;DHT22;1496;51.404;7.232;2023-06-22T11:29:44;23.80;1.00
2973;DHT22;1496;51.404;7.232;2023-06-22T11:32:10;23.60;1.00
2973;DHT22;1496;51.404;7.232;2023-06-22T11:34:37;23.40;1.00
2973;DHT22;1496;51.404;7.232;2023-06-22T11:37:03;23.30;1.00
2973;DHT22;1496;51.404;7.232;2023-06-22T11:39:30;23.20;1.00
2973;DHT22;1496;51.404;7.232;2023-06-22T11:41:57;23.10;1.00
2973;DHT22;1496;51.404;7.232;2023-06-22T11:44:25;23.10;1.00
2973;DHT22;1496;51.404;7.232;2023-06-22T11:46:52;23.10;1.00
2973;DHT22;1496;51.404;7.232;2023-06-22T11:49:20;23.00;1.00
2973;DHT22;1496;51.404;7.232;2023-06-22T11:51:47;22.90;1.00
2973;DHT22;1496;51.404;7.232;2023-06-22T11:54:13;22.80;1.00
2973;DHT22;1496;51.404;7.232;2023-06-22T11:56:40;22.70;1.00
2973;DHT22;1496;51.404;7.232;2023-06-22T11:59:07;22.60;1.00
2973;DHT22;1496;51.404;7.232;2023-06-22T12:01:33;22.60;24.10
2973;DHT22;1496;51.404;7.232;2023-06-22T12:04:01;22.50;94.40
2973;DHT22;1496;51.404;7.232;2023-06-22T12:06:32;22.50;99.90
2973;DHT22;1496;51.404;7.232;2023-06-22T12:09:01;22.50;99.90
2973;DHT22;1496;51.404;7.232;2023-06-22T12:11:31;22.40;1.00
2973;DHT22;1496;51.404;7.232;2023-06-22T12:13:59;22.40;1.00
2973;DHT22;1496;51.404;7.232;2023-06-22T12:16:29;22.40;72.50
2973;DHT22;1496;51.404;7.232;2023-06-22T12:18:57;22.30;99.90
2973;DHT22;1496;51.404;7.232;2023-06-22T12:21:23;22.30;99.90
2973;DHT22;1496;51.404;7.232;2023-06-22T12:23:50;22.30;1.00
2973;DHT22;1496;51.404;7.232;2023-06-22T12:26:17;22.30;1.00
2973;DHT22;1496;51.404;7.232;2023-06-22T12:28:44;22.30;99.90
2973;DHT22;1496;51.404;7.232;2023-06-22T12:31:12;22.20;1.00
2973;DHT22;1496;51.404;7.232;2023-06-22T12:33:39;22.20;1.00
2973;DHT22;1496;51.404;7.232;2023-06-22T12:36:06;22.10;1.00
2973;DHT22;1496;51.404;7.232;2023-06-22T12:38:33;22.00;1.00
2973;DHT22;1496;51.404;7.232;2023-06-22T12:41:01;21.90;1.00
2973;DHT22;1496;51.404;7.232;2023-06-22T12:43:28;21.90;1.00
2973;DHT22;1496;51.404;7.232;2023-06-22T12:45:55;22.00;1.00
2973;DHT22;1496;51.404;7.232;2023-06-22T12:48:23;22.00;1.00
2973;DHT22;1496;51.404;7.232;2023-06-22T12:50:50;22.00;99.90
2973;DHT22;1496;51.404;7.232;2023-06-22T12:53:18;21.90;99.90
2973;DHT22;1496;51.404;7.232;2023-06-22T12:55:45;21.80;1.00
2973;DHT22;1496;51.404;7.232;2023-06-22T12:58:12;21.70;99.90
2973;DHT22;1496;51.404;7.232;2023-06-22T13:00:40;21.60;99.90
2973;DHT22;1496;51.404;7.232;2023-06-22T13:03:08;21.60;99.90
2973;DHT22;1496;51.404;7.232;2023-06-22T13:05:35;21.50;99.90
2973;DHT22;1496;51.404;7.232;2023-06-22T13:08:02;21.50;99.90
2973;DHT22;1496;51.404;7.232;2023-06-22T13:10:29;21.50;99.90
2973;DHT22;1496;51.404;7.232;2023-06-22T13:12:55;21.60;99.90
2973;DHT22;1496;51.404;7.232;2023-06-22T13:15:28;21.70;99.90
2973;DHT22;1496;51.404;7.232;2023-06-22T13:17:55;22.00;99.90
2973;DHT22;1496;51.404;7.232;2023-06-22T13:20:22;22.20;1.00
2973;DHT22;1496;51.404;7.232;2023-06-22T13:22:49;22.30;99.90
2973;DHT22;1496;51.404;7.232;2023-06-22T13:25:18;22.40;99.90
2973;DHT22;1496;51.404;7.232;2023-06-22T13:27:46;22.50;99.90
2973;DHT22;1496;51.404;7.232;2023-06-22T13:30:15;22.50;99.90
2973;DHT22;1496;51.404;7.232;2023-06-22T13:32:43;22.40;99.90
2973;DHT22;1496;51.404;7.232;2023-06-22T13:35:10;22.40;99.90
2973;DHT22;1496;51.404;7.232;2023-06-22T13:37:40;22.40;99.90
2973;DHT22;1496;51.404;7.232;2023-06-22T13:40:07;22.30;29.70
2973;DHT22;1496;51.404;7.232;2023-06-22T13:42:37;22.40;31.60
2973;DHT22;1496;51.404;7.232;2023-06-22T13:45:03;22.50;7.60
2973;DHT22;1496;51.404;7.232;2023-06-22T13:47:32;22.50;1.00
2973;DHT22;1496;51.404;7.232;2023-06-22T13:49:59;22.30;1.00
2973;DHT22;1496;51.404;7.232;2023-06-22T13:52:26;22.40;1.00
2973;DHT22;1496;51.404;7.232;2023-06-22T13:54:54;22.30;1.00
2973;DHT22;1496;51.404;7.232;2023-06-22T13:57:20;22.20;1.00
2973;DHT22;1496;51.404;7.232;2023-06-22T13:59:47;22.30;1.00
2973;DHT22;1496;51.404;7.232;2023-06-22T14:02:13;22.20;1.00
2973;DHT22;1496;51.404;7.232;2023-06-22T14:04:40;22.30;1.00
2973;DHT22;1496;51.404;7.232;2023-06-22T14:07:07;22.20;1.00
2973;DHT22;1496;51.404;7.232;2023-06-22T14:09:34;22.20;1.00
2973;DHT22;1496;51.404;7.232;2023-06-22T14:12:06;22.30;1.00
2973;DHT22;1496;51.404;7.232;2023-06-22T14:14:33;22.30;1.00
2973;DHT22;1496;51.404;7.232;2023-06-22T14:17:00;22.30;1.00
2973;DHT22;1496;51.404;7.232;2023-06-22T14:19:27;22.30;1.00
2973;DHT22;1496;51.404;7.232;2023-06-22T14:21:54;22.20;1.00
2973;DHT22;1496;51.404;7.232;2023-06-22T14:24:22;22.30;1.00
2973;DHT22;1496;51.404;7.232;2023-06-22T14:26:50;22.30;1.00
2973;DHT22;1496;51.404;7.232;2023-06-22T14:29:18;22.30;1.00
2973;DHT22;1496;51.404;7.232;2023-06-22T14:31:48;22.30;1.00
2973;DHT22;1496;51.404;7.232;2023-06-22T14:34:16;22.30;1.00
2973;DHT22;1496;51.404;7.232;2023-06-22T14:36:43;22.20;1.00
2973;DHT22;1496;51.404;7.232;2023-06-22T14:39:11;22.20;1.00
2973;DHT22;1496;51.404;7.232;2023-06-22T14:41:38;22.10;1.00
2973;DHT22;1496;51.404;7.232;2023-06-22T14:44:05;22.00;1.00
2973;DHT22;1496;51.404;7.232;2023-06-22T14:46:30;22.10;1.00
2973;DHT22;1496;51.404;7.232;2023-06-22T14:48:58;22.00;1.00
2973;DHT22;1496;51.404;7.232;2023-06-22T14:51:23;22.00;1.00
2973;DHT22;1496;51.404;7.232;2023-06-22T14:53:50;21.90;1.00
2973;DHT22;1496;51.404;7.232;2023-06-22T14:56:18;21.90;1.00
2973;DHT22;1496;51.404;7.232;2023-06-22T14:58:45;21.90;1.00
2973;DHT22;1496;51.404;7.232;2023-06-22T15:01:12;21.90;1.00
2973;DHT22;1496;51.404;7.232;2023-06-22T15:03:39;21.90;1.00
2973;DHT22;1496;51.404;7.232;2023-06-22T15:06:06;21.90;1.00
2973;DHT22;1496;51.404;7.232;2023-06-22T15:08:34;21.90;1.00
2973;DHT22;1496;51.404;7.232;2023-06-22T15:11:00;22.00;1.00
2973;DHT22;1496;51.404;7.232;2023-06-22T15:13:30;22.00;1.00
2973;DHT22;1496;51.404;7.232;2023-06-22T15:16:04;22.00;1.00
2973;DHT22;1496;51.404;7.232;2023-06-22T15:18:31;22.00;1.00
2973;DHT22;1496;51.404;7.232;2023-06-22T15:21:00;21.90;1.00
2973;DHT22;1496;51.404;7.232;2023-06-22T15:23:28;21.90;1.00
2973;DHT22;1496;51.404;7.232;2023-06-22T15:25:57;21.80;1.00
2973;DHT22;1496;51.404;7.232;2023-06-22T15:28:25;21.80;1.00
2973;DHT22;1496;51.404;7.232;2023-06-22T15:30:52;21.70;16.30
2973;DHT22;1496;51.404;7.232;2023-06-22T15:33:19;21.70;33.60
2973;DHT22;1496;51.404;7.232;2023-06-22T15:35:46;21.60;99.90
2973;DHT22;1496;51.404;7.232;2023-06-22T15:38:13;21.60;99.90
2973;DHT22;1496;51.404;7.232;2023-06-22T15:40:40;21.60;99.90
2973;DHT22;1496;51.404;7.232;2023-06-22T15:43:11;21.60;99.90
2973;DHT22;1496;51.404;7.232;2023-06-22T15:45:39;21.60;99.90
2973;DHT22;1496;51.404;7.232;2023-06-22T15:48:06;21.60;1.00
2973;DHT22;1496;51.404;7.232;2023-06-22T15:50:32;21.60;1.00
2973;DHT22;1496;51.404;7.232;2023-06-22T15:52:59;21.60;1.00
2973;DHT22;1496;51.404;7.232;2023-06-22T15:55:27;21.50;54.00
2973;DHT22;1496;51.404;7.232;2023-06-22T15:57:58;21.50;99.90
2973;DHT22;1496;51.404;7.232;2023-06-22T16:00:26;21.50;99.90
2973;DHT22;1496;51.404;7.232;2023-06-22T16:02:54;21.50;99.90
2973;DHT22;1496;51.404;7.232;2023-06-22T16:05:21;21.60;99.90
2973;DHT22;1496;51.404;7.232;2023-06-22T16:07:49;21.60;99.90
2973;DHT22;1496;51.404;7.232;2023-06-22T16:10:16;21.50;99.90
2973;DHT22;1496;51.404;7.232;2023-06-22T16:12:43;21.60;99.90
2973;DHT22;1496;51.404;7.232;2023-06-22T16:15:10;21.70;99.90
2973;DHT22;1496;51.404;7.232;2023-06-22T16:17:36;21.70;57.50
2973;DHT22;1496;51.404;7.232;2023-06-22T16:20:06;21.60;35.30
2973;DHT22;1496;51.404;7.232;2023-06-22T16:22:33;21.50;99.90
2973;DHT22;1496;51.404;7.232;2023-06-22T16:25:00;21.50;99.90
2973;DHT22;1496;51.404;7.232;2023-06-22T16:27:29;21.40;99.90
2973;DHT22;1496;51.404;7.232;2023-06-22T16:29:58;21.40;99.90